Time;durP1;ratioP1;P1;durP2;ratioP2;P2;SDS_P1;SDS_P2;PMS_P1;PMS_P2;Temp;Humidity;BMP_temperature;BMP_pressure;BME280_temperature;BME280_humidity;BME280_pressure;Samples;Min_cycle;Max_cycle;Signal;HPM_P1;HPM_P2
2022/05/09 00:01:29;;;;;;;17.33;9.23;;;14.50;99.90;;;;;;5051035;28;20205;-60
2022/05/09 00:03:57;;;;;;;15.87;8.87;;;14.50;99.90;;;;;;5050919;28;20205;-60
2022/05/09 00:06:25;;;;;;;17.10;9.13;;;14.50;99.90;;;;;;5050657;28;20241;-61
2022/05/09 00:08:52;;;;;;;19.83;9.97;;;14.50;99.90;;;;;;5050785;28;20202;-61
2022/05/09 00:11:19;;;;;;;22.93;10.40;;;14.40;99.90;;;;;;5051246;28;20213;-61
2022/05/09 00:13:46;;;;;;;22.13;12.10;;;14.40;99.90;;;;;;5050935;28;20224;-61
2022/05/09 00:16:13;;;;;;;24.63;11.63;;;14.30;99.90;;;;;;5051221;28;20202;-60
2022/05/09 00:18:40;;;;;;;28.37;12.70;;;14.20;99.90;;;;;;5050983;28;20229;-60
2022/05/09 00:21:07;;;;;;;29.30;13.13;;;14.20;99.90;;;;;;5050834;28;20213;-60
2022/05/09 00:23:35;;;;;;;28.97;12.83;;;14.10;99.90;;;;;;5051336;28;20563;-61
2022/05/09 00:26:02;;;;;;;33.83;13.93;;;14.10;99.90;;;;;;5050818;28;20209;-61
2022/05/09 00:28:29;;;;;;;38.07;14.40;;;14.10;99.90;;;;;;5051172;28;20686;-61
2022/05/09 00:30:56;;;;;;;29.87;12.80;;;14.10;99.90;;;;;;5052247;28;20629;-60
2022/05/09 00:33:24;;;;;;;30.77;12.97;;;14.10;99.90;;;;;;5054974;28;20261;-61
2022/05/09 00:35:51;;;;;;;26.53;12.43;;;14.10;99.90;;;;;;5054638;28;20206;-60
2022/05/09 00:38:18;;;;;;;27.17;13.40;;;14.00;99.90;;;;;;5054648;28;20229;-61
2022/05/09 00:43:32;;;;;;;25.10;11.77;;;13.90;99.90;;;;;;5053493;28;20212;-60
2022/05/09 00:45:59;;;;;;;22.20;11.13;;;13.90;99.90;;;;;;5054410;28;20201;-62
2022/05/09 00:48:26;;;;;;;25.87;10.40;;;13.80;99.90;;;;;;5054316;28;20205;-60
2022/05/09 00:50:54;;;;;;;21.43;11.47;;;13.80;99.90;;;;;;5054337;28;20829;-60
2022/05/09 00:53:22;;;;;;;21.67;11.13;;;13.70;99.90;;;;;;5054473;28;20213;-61
2022/05/09 00:55:54;;;;;;;19.33;11.40;;;13.70;99.90;;;;;;5054329;28;20232;-61
2022/05/09 00:58:25;;;;;;;21.37;11.93;;;13.60;99.90;;;;;;5054339;28;20217;-60
2022/05/09 01:00:53;;;;;;;21.10;11.30;;;13.60;99.90;;;;;;5054323;28;20196;-61
2022/05/09 01:03:25;;;;;;;26.57;11.97;;;13.60;99.90;;;;;;5054096;28;20246;-61
2022/05/09 01:05:52;;;;;;;26.07;12.23;;;13.60;99.90;;;;;;5053644;28;20237;-61
2022/05/09 01:08:19;;;;;;;23.03;12.10;;;13.60;99.90;;;;;;5054238;28;20255;-62
2022/05/09 01:10:47;;;;;;;25.33;13.50;;;13.60;99.90;;;;;;5054197;28;20682;-61
2022/05/09 01:13:17;;;;;;;22.90;12.90;;;13.60;99.90;;;;;;5054311;28;20296;-60
2022/05/09 01:15:47;;;;;;;25.30;13.13;;;13.60;99.90;;;;;;5053971;28;20200;-61
2022/05/09 01:18:16;;;;;;;26.33;13.17;;;13.60;99.90;;;;;;5053768;28;20225;-61
2022/05/09 01:20:43;;;;;;;24.50;13.40;;;13.50;99.90;;;;;;5053608;28;20213;-61
2022/05/09 01:23:11;;;;;;;21.90;12.10;;;13.50;99.90;;;;;;5054071;28;20209;-61
2022/05/09 01:25:39;;;;;;;21.27;12.07;;;13.50;99.90;;;;;;5053768;28;20206;-60
2022/05/09 01:28:06;;;;;;;23.07;12.67;;;13.50;99.90;;;;;;5053882;28;20208;-61
2022/05/09 01:30:39;;;;;;;22.40;11.57;;;13.30;99.90;;;;;;5053951;28;20624;-62
2022/05/09 01:33:12;;;;;;;24.93;12.53;;;13.30;99.90;;;;;;5053987;28;20190;-60
2022/05/09 01:35:42;;;;;;;22.57;11.40;;;13.30;99.90;;;;;;5053803;28;20525;-61
2022/05/09 01:38:17;;;;;;;21.27;11.70;;;13.30;99.90;;;;;;5053804;28;20296;-60
2022/05/09 01:40:44;;;;;;;23.20;11.10;;;13.30;99.90;;;;;;5053339;28;20193;-61
2022/05/09 01:43:11;;;;;;;17.43;10.00;;;13.30;99.90;;;;;;5052309;28;20216;-61
2022/05/09 01:45:38;;;;;;;17.80;10.10;;;13.20;99.90;;;;;;5053400;28;20205;-61
2022/05/09 01:50:50;;;;;;;16.10;9.43;;;13.20;99.90;;;;;;5053214;28;20200;-61
2022/05/09 01:53:18;;;;;;;17.00;9.77;;;13.20;99.90;;;;;;5053137;28;20209;-61
2022/05/09 01:55:44;;;;;;;19.00;10.00;;;13.30;99.90;;;;;;5052880;28;20212;-61
2022/05/09 01:58:11;;;;;;;17.30;9.87;;;13.20;99.90;;;;;;5052966;28;20228;-63
2022/05/09 02:00:38;;;;;;;21.73;10.37;;;13.20;99.90;;;;;;5052863;28;20206;-61
2022/05/09 02:03:05;;;;;;;20.23;10.70;;;13.20;99.90;;;;;;5053184;28;20205;-59
2022/05/09 02:05:32;;;;;;;20.90;11.07;;;13.10;99.90;;;;;;5052904;28;20224;-60
2022/05/09 02:07:59;;;;;;;21.57;10.83;;;13.20;99.90;;;;;;5052801;28;20220;-61
2022/05/09 02:10:27;;;;;;;21.70;11.27;;;13.10;99.90;;;;;;5053157;28;20206;-61
2022/05/09 02:12:54;;;;;;;23.30;11.50;;;13.10;99.90;;;;;;5052707;28;20359;-60
2022/05/09 02:15:21;;;;;;;18.57;11.20;;;13.10;99.90;;;;;;5052825;28;20206;-60
2022/05/09 02:17:48;;;;;;;21.93;11.80;;;13.10;99.90;;;;;;5052715;28;20209;-60
2022/05/09 02:20:14;;;;;;;19.83;10.60;;;13.00;99.90;;;;;;5053024;28;20622;-62
2022/05/09 02:22:41;;;;;;;23.27;11.30;;;13.00;99.90;;;;;;5052374;28;20217;-61
2022/05/09 02:27:51;;;;;;;24.13;10.70;;;13.00;99.90;;;;;;5051877;28;20208;-60
2022/05/09 02:30:18;;;;;;;22.20;11.53;;;13.00;99.90;;;;;;5052607;28;20205;-61
2022/05/09 02:32:45;;;;;;;19.30;11.07;;;13.00;99.90;;;;;;5052545;28;20212;-61
2022/05/09 02:35:11;;;;;;;22.17;11.63;;;13.00;99.90;;;;;;5052529;28;20685;-60
2022/05/09 02:37:38;;;;;;;21.47;11.53;;;13.00;99.90;;;;;;5052130;28;20205;-62
2022/05/09 02:40:06;;;;;;;19.57;10.73;;;12.90;99.90;;;;;;5052428;28;20225;-62
2022/05/09 02:42:34;;;;;;;21.83;11.50;;;12.90;99.90;;;;;;5052383;28;20213;-60
2022/05/09 02:45:03;;;;;;;22.57;11.00;;;12.90;99.90;;;;;;5052476;28;20291;-61
2022/05/09 02:47:30;;;;;;;22.90;12.00;;;12.80;99.90;;;;;;5051992;28;20209;-61
2022/05/09 02:49:57;;;;;;;23.80;11.70;;;12.80;99.90;;;;;;5052061;28;20205;-60
2022/05/09 02:52:24;;;;;;;21.13;10.87;;;12.80;99.90;;;;;;5052219;28;20205;-61
2022/05/09 02:54:51;;;;;;;22.23;12.13;;;12.80;99.90;;;;;;5051829;28;20559;-61
2022/05/09 02:57:18;;;;;;;23.00;11.70;;;12.70;99.90;;;;;;5052356;28;20842;-60
2022/05/09 02:59:45;;;;;;;22.20;11.67;;;12.70;99.90;;;;;;5051726;28;20232;-60
2022/05/09 03:02:13;;;;;;;23.10;12.13;;;12.70;99.90;;;;;;5052067;28;20567;-62
2022/05/09 03:04:39;;;;;;;22.37;11.40;;;12.70;99.90;;;;;;5051567;28;20205;-61
2022/05/09 03:07:06;;;;;;;21.30;10.70;;;12.70;99.90;;;;;;5051735;28;20235;-60
2022/05/09 03:09:33;;;;;;;22.57;10.97;;;12.70;99.90;;;;;;5051894;28;20698;-61
2022/05/09 03:12:00;;;;;;;19.50;10.63;;;12.70;99.90;;;;;;5052002;28;20211;-61
2022/05/09 03:14:26;;;;;;;17.73;9.53;;;12.70;99.90;;;;;;5051844;28;20205;-60
2022/05/09 03:16:53;;;;;;;17.97;9.47;;;12.70;99.90;;;;;;5051934;28;20615;-62
2022/05/09 03:19:21;;;;;;;16.20;9.00;;;12.70;99.90;;;;;;5051771;28;20236;-61
2022/05/09 03:21:50;;;;;;;14.97;8.50;;;12.70;99.90;;;;;;5051850;28;20209;-61
2022/05/09 03:24:16;;;;;;;14.40;8.87;;;12.60;99.90;;;;;;5051468;28;20210;-61
2022/05/09 03:26:43;;;;;;;15.07;8.77;;;12.60;99.90;;;;;;5051990;28;20208;-60
2022/05/09 03:29:10;;;;;;;15.33;7.90;;;12.60;99.90;;;;;;5051794;28;20202;-60
2022/05/09 03:31:37;;;;;;;17.90;7.60;;;12.70;99.90;;;;;;5051601;28;20679;-59
2022/05/09 03:34:03;;;;;;;11.33;6.90;;;12.70;99.90;;;;;;5051657;28;20517;-61
2022/05/09 03:36:32;;;;;;;11.20;6.17;;;12.70;99.90;;;;;;5051711;28;20228;-60
2022/05/09 03:38:58;;;;;;;12.90;6.20;;;12.70;99.90;;;;;;5051746;28;20759;-60
2022/05/09 03:41:25;;;;;;;8.70;5.60;;;12.70;99.90;;;;;;5051304;28;20209;-62
2022/05/09 03:43:52;;;;;;;8.80;5.80;;;12.70;99.90;;;;;;5051658;28;20212;-62
2022/05/09 03:46:19;;;;;;;9.53;5.33;;;12.80;99.90;;;;;;5051665;28;20209;-60
2022/05/09 03:48:46;;;;;;;7.77;5.20;;;12.90;99.90;;;;;;5051422;28;20197;-61
2022/05/09 03:51:12;;;;;;;9.93;5.90;;;12.80;99.90;;;;;;5051303;28;20216;-61
2022/05/09 03:53:41;;;;;;;8.90;5.33;;;12.90;99.90;;;;;;5051187;28;20209;-62
2022/05/09 03:56:10;;;;;;;7.43;5.77;;;12.80;99.90;;;;;;5051663;28;20233;-59
2022/05/09 03:58:37;;;;;;;7.87;5.07;;;12.90;99.90;;;;;;5051341;28;20630;-61
2022/05/09 04:01:04;;;;;;;6.57;4.90;;;12.90;99.90;;;;;;5051424;28;20201;-61
2022/05/09 04:03:31;;;;;;;8.03;5.27;;;12.90;99.90;;;;;;5051098;28;20205;-60
2022/05/09 04:05:58;;;;;;;7.93;5.20;;;12.90;99.90;;;;;;5052508;28;20237;-60
2022/05/09 04:08:25;;;;;;;9.23;5.30;;;12.80;99.90;;;;;;5055259;28;20211;-61
2022/05/09 04:10:54;;;;;;;7.43;4.97;;;12.80;99.90;;;;;;5055385;28;20214;-61
2022/05/09 04:13:22;;;;;;;7.63;5.23;;;12.90;99.90;;;;;;5055098;28;20251;-60
2022/05/09 04:18:37;;;;;;;13.17;5.37;;;12.80;99.90;;;;;;5054851;28;20235;-60
2022/05/09 04:21:04;;;;;;;10.23;5.17;;;12.90;99.90;;;;;;5055285;28;20205;-61
2022/05/09 04:23:30;;;;;;;8.93;5.03;;;12.90;99.90;;;;;;5055038;28;20216;-61
2022/05/09 04:25:58;;;;;;;8.10;5.00;;;12.80;99.90;;;;;;5055155;28;20568;-61
2022/05/09 04:28:25;;;;;;;10.37;5.40;;;12.80;99.90;;;;;;5055039;28;20220;-61
2022/05/09 04:30:52;;;;;;;10.20;5.80;;;12.90;99.90;;;;;;5055045;28;20202;-60
2022/05/09 04:33:20;;;;;;;9.87;5.10;;;12.90;99.90;;;;;;5054556;28;20215;-61
2022/05/09 04:35:47;;;;;;;7.67;4.80;;;12.90;99.90;;;;;;5054884;28;20571;-62
2022/05/09 04:38:16;;;;;;;7.10;4.83;;;12.90;99.90;;;;;;5054893;28;20201;-61
2022/05/09 04:40:44;;;;;;;7.37;4.33;;;12.90;99.90;;;;;;5054860;28;20687;-60
2022/05/09 04:43:12;;;;;;;7.53;4.30;;;12.90;99.90;;;;;;5054805;28;20236;-63
2022/05/09 04:45:40;;;;;;;6.67;4.63;;;12.90;99.90;;;;;;5054793;28;20233;-61
2022/05/09 04:48:07;;;;;;;7.90;4.80;;;12.90;99.90;;;;;;5054774;28;20205;-63
2022/05/09 04:50:34;;;;;;;8.03;4.83;;;12.90;99.90;;;;;;5054768;28;20603;-61
2022/05/09 04:53:02;;;;;;;9.10;5.30;;;12.90;99.90;;;;;;5054603;28;20233;-62
2022/05/09 04:55:29;;;;;;;11.10;5.20;;;13.00;99.90;;;;;;5054378;28;20209;-61
2022/05/09 04:57:57;;;;;;;7.03;4.73;;;13.00;99.90;;;;;;5054339;28;20564;-60
2022/05/09 05:00:27;;;;;;;9.93;5.10;;;13.00;99.90;;;;;;5054078;28;20703;-62
2022/05/09 05:02:55;;;;;;;7.00;5.20;;;13.10;99.90;;;;;;5054327;28;20538;-60
2022/05/09 05:05:23;;;;;;;9.13;5.20;;;13.20;99.90;;;;;;5053687;28;20284;-61
2022/05/09 05:07:50;;;;;;;8.83;5.43;;;13.20;99.90;;;;;;5054125;28;20213;-60
2022/05/09 05:10:17;;;;;;;10.03;5.50;;;13.30;99.90;;;;;;5053912;28;20559;-60
2022/05/09 05:12:44;;;;;;;11.50;5.33;;;13.30;99.90;;;;;;5053786;28;20209;-60
2022/05/09 05:15:12;;;;;;;9.30;5.87;;;13.30;99.90;;;;;;5053905;28;20209;-62
2022/05/09 05:17:40;;;;;;;10.67;6.57;;;13.40;99.90;;;;;;5053536;28;20595;-61
2022/05/09 05:20:12;;;;;;;13.27;6.80;;;13.40;99.90;;;;;;5053929;28;20691;-59
2022/05/09 05:22:41;;;;;;;13.07;6.70;;;13.40;99.90;;;;;;5053887;28;20193;-61
2022/05/09 05:25:09;;;;;;;14.93;7.20;;;13.50;99.90;;;;;;5053868;28;20673;-62
2022/05/09 05:27:36;;;;;;;13.30;6.43;;;13.60;99.90;;;;;;5053768;28;20581;-62
2022/05/09 05:30:02;;;;;;;12.53;6.63;;;13.70;99.90;;;;;;5053786;28;20533;-62
2022/05/09 05:32:34;;;;;;;10.20;5.63;;;13.80;99.90;;;;;;5053629;28;20209;-62
2022/05/09 05:35:03;;;;;;;11.33;5.23;;;13.70;99.90;;;;;;5053907;28;20197;-61
2022/05/09 05:37:30;;;;;;;9.23;5.10;;;13.80;99.90;;;;;;5053628;28;20212;-61
2022/05/09 05:39:58;;;;;;;8.70;4.73;;;13.80;99.90;;;;;;5053679;28;20221;-62
2022/05/09 05:42:25;;;;;;;9.33;4.60;;;13.80;99.90;;;;;;5053157;28;20208;-62
2022/05/09 05:44:52;;;;;;;7.73;4.27;;;13.80;99.90;;;;;;5053177;28;20205;-62
2022/05/09 05:47:21;;;;;;;10.37;4.70;;;13.80;99.90;;;;;;5053303;28;20570;-62
2022/05/09 05:49:48;;;;;;;8.37;4.63;;;13.70;99.90;;;;;;5053516;28;20205;-61
2022/05/09 05:52:17;;;;;;;8.87;4.27;;;13.80;99.90;;;;;;5053265;28;20236;-62
2022/05/09 05:54:45;;;;;;;5.80;4.07;;;13.80;99.90;;;;;;5052924;28;20210;-62
2022/05/09 05:57:21;;;;;;;6.70;4.17;;;13.90;99.90;;;;;;5052927;28;20205;-60
2022/05/09 05:59:49;;;;;;;5.77;3.73;;;14.00;99.90;;;;;;5053184;28;20721;-62
2022/05/09 06:02:16;;;;;;;4.33;2.70;;;14.00;99.90;;;;;;5052705;28;20220;-61
2022/05/09 06:04:43;;;;;;;3.83;2.97;;;14.00;99.90;;;;;;5052793;28;20201;-62
2022/05/09 06:07:10;;;;;;;5.33;2.93;;;14.00;99.90;;;;;;5052619;28;20241;-62
2022/05/09 06:09:39;;;;;;;3.70;2.73;;;14.10;99.90;;;;;;5053083;28;20284;-60
2022/05/09 06:12:06;;;;;;;3.73;2.70;;;14.20;99.90;;;;;;5052755;28;20205;-60
2022/05/09 06:14:33;;;;;;;2.63;2.43;;;14.20;99.90;;;;;;5052978;28;20241;-61
2022/05/09 06:17:00;;;;;;;4.37;2.73;;;14.20;99.90;;;;;;5052901;28;20672;-61
2022/05/09 06:19:27;;;;;;;4.47;2.97;;;14.10;99.90;;;;;;5052596;28;20708;-63
2022/05/09 06:21:54;;;;;;;6.37;2.70;;;14.10;99.90;;;;;;5052600;28;20216;-61
2022/05/09 06:24:21;;;;;;;4.03;2.70;;;14.10;99.90;;;;;;5052546;28;20305;-61
2022/05/09 06:26:50;;;;;;;5.93;3.30;;;14.10;99.90;;;;;;5052641;28;20212;-62
2022/05/09 06:29:17;;;;;;;5.33;2.10;;;14.10;99.90;;;;;;5051510;28;20205;-61
2022/05/09 06:31:43;;;;;;;5.10;2.50;;;14.10;99.90;;;;;;5052541;28;20300;-61
2022/05/09 06:34:13;;;;;;;4.10;2.50;;;14.10;99.90;;;;;;5052400;28;20613;-62
2022/05/09 06:36:40;;;;;;;3.93;2.37;;;14.10;99.90;;;;;;5052170;28;20205;-63
2022/05/09 06:39:09;;;;;;;2.73;2.30;;;14.10;99.90;;;;;;5052278;28;20205;-61
2022/05/09 06:41:36;;;;;;;2.93;2.40;;;14.10;99.90;;;;;;5052444;28;20224;-61
2022/05/09 06:44:05;;;;;;;5.03;2.60;;;14.20;99.90;;;;;;5052185;28;20678;-61
2022/05/09 06:46:33;;;;;;;4.53;2.27;;;14.20;99.90;;;;;;5052117;28;20591;-61
2022/05/09 06:49:00;;;;;;;4.23;2.30;;;14.20;99.90;;;;;;5052122;28;20205;-61
2022/05/09 06:51:27;;;;;;;3.53;2.20;;;14.20;99.90;;;;;;5052189;28;20212;-62
2022/05/09 06:53:54;;;;;;;3.30;2.17;;;14.20;99.90;;;;;;5052336;28;20212;-62
2022/05/09 06:56:21;;;;;;;4.50;2.33;;;14.30;99.90;;;;;;5052041;28;20212;-62
2022/05/09 06:58:48;;;;;;;5.43;2.37;;;14.30;99.90;;;;;;5052173;28;20201;-62
2022/05/09 07:01:18;;;;;;;3.50;2.00;;;14.40;99.90;;;;;;5051953;28;20229;-63
2022/05/09 07:03:45;;;;;;;2.47;1.87;;;14.40;99.90;;;;;;5052034;28;20624;-61
2022/05/09 07:06:12;;;;;;;4.30;2.00;;;14.50;99.90;;;;;;5051293;28;20239;-62
2022/05/09 07:08:40;;;;;;;3.30;2.17;;;14.50;99.90;;;;;;5051989;28;20221;-65
2022/05/09 07:11:07;;;;;;;3.80;2.00;;;14.60;99.90;;;;;;5051738;28;20205;-63
2022/05/09 07:13:34;;;;;;;4.27;2.40;;;14.70;99.90;;;;;;5052037;28;20266;-63
2022/05/09 07:16:01;;;;;;;4.20;2.27;;;14.90;99.90;;;;;;5051459;28;20209;-61
2022/05/09 07:18:29;;;;;;;5.77;2.37;;;14.90;99.90;;;;;;5051866;28;20225;-61
2022/05/09 07:20:57;;;;;;;3.20;2.17;;;14.90;99.90;;;;;;5051653;28;20581;-62
2022/05/09 07:23:24;;;;;;;3.60;2.47;;;14.90;99.90;;;;;;5051992;28;20691;-62
2022/05/09 07:25:52;;;;;;;2.73;1.97;;;14.90;99.90;;;;;;5051912;28;20212;-61
2022/05/09 07:28:21;;;;;;;3.30;2.17;;;14.90;99.90;;;;;;5051819;28;20664;-61
2022/05/09 07:30:48;;;;;;;3.60;2.27;;;14.90;99.90;;;;;;5051485;28;20227;-63
2022/05/09 07:33:16;;;;;;;3.17;2.20;;;15.00;99.90;;;;;;5051690;28;20205;-61
2022/05/09 07:35:45;;;;;;;8.03;2.10;;;15.00;99.90;;;;;;5051882;28;20509;-62
2022/05/09 07:38:12;;;;;;;2.47;1.87;;;15.20;99.90;;;;;;5051586;28;20201;-63
2022/05/09 07:40:40;;;;;;;2.90;1.93;;;15.20;99.90;;;;;;5054207;28;20221;-62
2022/05/09 07:43:14;;;;;;;4.37;2.10;;;15.20;99.90;;;;;;5055813;28;20294;-62
2022/05/09 07:45:42;;;;;;;5.47;1.90;;;15.30;99.90;;;;;;5055983;28;20580;-62
2022/05/09 07:48:09;;;;;;;5.07;1.97;;;15.40;99.90;;;;;;5055305;28;20212;-61
2022/05/09 07:50:36;;;;;;;2.00;1.80;;;15.40;99.90;;;;;;5055714;28;20693;-63
2022/05/09 07:53:10;;;;;;;3.47;1.80;;;15.50;99.90;;;;;;5055398;28;20215;-62
2022/05/09 07:55:39;;;;;;;3.07;1.57;;;15.40;99.90;;;;;;5055448;28;20189;-64
2022/05/09 07:58:06;;;;;;;2.20;1.40;;;15.40;99.90;;;;;;5055646;28;20201;-62
2022/05/09 08:00:32;;;;;;;2.23;1.60;;;15.30;99.90;;;;;;5055758;28;20245;-62
2022/05/09 08:02:59;;;;;;;3.00;1.50;;;15.30;99.90;;;;;;5055254;28;20205;-64
2022/05/09 08:05:26;;;;;;;2.00;1.70;;;15.20;99.90;;;;;;5055325;28;20209;-61
2022/05/09 08:07:53;;;;;;;2.30;1.50;;;15.20;99.90;;;;;;5054921;28;20193;-62
2022/05/09 08:10:21;;;;;;;1.50;1.40;;;15.20;99.90;;;;;;5055380;28;20201;-61
2022/05/09 08:12:49;;;;;;;2.10;1.57;;;15.20;99.90;;;;;;5054946;28;20209;-63
2022/05/09 08:15:18;;;;;;;2.03;1.53;;;15.20;99.90;;;;;;5055085;28;20209;-64
2022/05/09 08:17:46;;;;;;;3.13;1.60;;;15.20;99.90;;;;;;5055125;28;20237;-61
2022/05/09 08:20:15;;;;;;;3.43;1.67;;;15.30;99.90;;;;;;5055178;28;20625;-63
2022/05/09 08:22:41;;;;;;;3.90;1.43;;;15.30;99.90;;;;;;5055319;28;20625;-64
2022/05/09 08:25:10;;;;;;;3.80;2.00;;;15.40;99.90;;;;;;5054697;28;20575;-62
2022/05/09 08:27:39;;;;;;;2.30;1.60;;;15.40;99.90;;;;;;5055061;28;20564;-62
2022/05/09 08:30:07;;;;;;;3.07;1.60;;;15.40;99.90;;;;;;5054961;28;20291;-63
2022/05/09 08:32:36;;;;;;;1.93;1.60;;;15.40;99.90;;;;;;5054972;28;20209;-61
2022/05/09 08:35:04;;;;;;;3.77;1.97;;;15.40;99.90;;;;;;5054818;28;20209;-62
2022/05/09 08:37:31;;;;;;;2.00;1.60;;;15.40;99.90;;;;;;5054825;28;20209;-61
2022/05/09 08:39:58;;;;;;;3.53;1.70;;;15.40;99.90;;;;;;5054647;28;20257;-63
2022/05/09 08:42:35;;;;;;;1.70;1.60;;;15.40;99.90;;;;;;5054827;28;20212;-60
2022/05/09 08:45:16;;;;;;;2.00;1.50;;;15.40;99.90;;;;;;5054402;28;20185;-62
2022/05/09 08:48:22;;;;;;;2.10;1.60;;;15.40;99.90;;;;;;5054089;28;20197;-62
2022/05/09 08:51:16;;;;;;;1.87;1.67;;;15.40;99.60;;;;;;5053851;28;20205;-61
2022/05/09 08:53:45;;;;;;;2.07;1.50;;;15.50;99.90;;;;;;5036556;28;20212;-61
2022/05/09 08:56:17;;;;;;;1.90;1.50;;;15.60;99.00;;;;;;5054581;28;20216;-63
2022/05/09 08:58:49;;;;;;;2.33;1.50;;;15.60;99.60;;;;;;5054096;28;20186;-63
2022/05/09 09:01:22;;;;;;;2.13;1.47;;;15.60;98.60;;;;;;5054461;28;20236;-63
2022/05/09 09:03:57;;;;;;;2.33;1.70;;;15.60;96.10;;;;;;5054055;28;20279;-62
2022/05/09 09:06:41;;;;;;;4.07;1.63;;;15.50;95.70;;;;;;5054008;28;20228;-61
2022/05/09 09:09:19;;;;;;;3.63;1.87;;;15.60;97.20;;;;;;5054348;28;20190;-62
2022/05/09 09:11:54;;;;;;;5.50;2.00;;;15.70;95.60;;;;;;5054118;28;20541;-65
2022/05/09 09:14:32;;;;;;;4.13;1.77;;;15.60;94.20;;;;;;5054298;28;20201;-62
2022/05/09 09:17:10;;;;;;;2.17;1.43;;;15.70;95.00;;;;;;5053949;28;20194;-62
2022/05/09 09:19:48;;;;;;;2.30;1.57;;;15.80;95.50;;;;;;5053763;28;20190;-61
2022/05/09 09:22:25;;;;;;;2.80;1.73;;;15.70;96.10;;;;;;5054174;28;20185;-61
2022/05/09 09:25:16;;;;;;;4.13;1.60;;;15.80;95.50;;;;;;5053879;28;20196;-61
2022/05/09 09:27:47;;;;;;;4.03;1.50;;;15.80;94.00;;;;;;5009936;28;20205;-62
2022/05/09 09:30:17;;;;;;;5.73;1.60;;;15.80;94.10;;;;;;5053670;28;20189;-60
2022/05/09 09:32:56;;;;;;;6.53;1.30;;;15.90;94.10;;;;;;5053786;28;20228;-63
2022/05/09 09:35:30;;;;;;;6.10;1.43;;;15.90;84.30;;;;;;5053576;28;20197;-61
2022/05/09 09:38:05;;;;;;;3.40;1.30;;;16.10;86.40;;;;;;5053730;28;20224;-62
2022/05/09 09:40:33;;;;;;;3.30;1.20;;;16.10;83.30;;;;;;5053780;28;20213;-62
2022/05/09 09:43:00;;;;;;;1.20;1.10;;;16.10;82.90;;;;;;5053412;28;20201;-61
2022/05/09 09:45:30;;;;;;;1.43;1.17;;;16.20;83.20;;;;;;5053359;28;20209;-62
2022/05/09 09:48:13;;;;;;;3.77;1.53;;;16.20;80.50;;;;;;5053614;28;20205;-63
2022/05/09 09:50:54;;;;;;;1.40;1.30;;;16.20;81.10;;;;;;5053506;28;20205;-63
2022/05/09 09:53:32;;;;;;;1.67;1.33;;;16.20;78.40;;;;;;5053493;28;20193;-62
2022/05/09 09:56:06;;;;;;;1.37;1.27;;;16.20;74.20;;;;;;5053536;28;20240;-62
2022/05/09 09:58:33;;;;;;;3.63;1.90;;;16.20;74.30;;;;;;5053391;28;20193;-62
2022/05/09 10:01:07;;;;;;;1.43;1.33;;;16.10;76.40;;;;;;5053011;28;20235;-62
2022/05/09 10:03:38;;;;;;;3.73;1.70;;;16.00;76.50;;;;;;5052076;28;20190;-61
2022/05/09 10:06:14;;;;;;;2.30;1.60;;;16.00;78.40;;;;;;5053037;28;20283;-61
2022/05/09 10:08:42;;;;;;;2.07;1.67;;;16.00;78.20;;;;;;5052886;28;20190;-62
2022/05/09 10:11:11;;;;;;;3.90;1.63;;;16.00;78.70;;;;;;5052820;28;20216;-62
2022/05/09 10:13:41;;;;;;;2.73;1.50;;;16.00;78.50;;;;;;5052876;28;20206;-61
2022/05/09 10:16:12;;;;;;;4.97;1.90;;;16.10;77.80;;;;;;5053085;28;20193;-62
2022/05/09 10:18:43;;;;;;;3.10;1.60;;;16.10;76.00;;;;;;5052560;28;20321;-62
2022/05/09 10:24:47;;;;;;;2.33;1.60;;;16.10;75.40;;;;;;5052842;28;20698;-62
2022/05/09 10:26:57;;;;;;;4.23;1.60;;;16.10;77.20;;;;;;5052635;28;20185;-62
2022/05/09 10:29:25;;;;;;;2.77;1.23;;;16.20;76.80;;;;;;5052758;28;20212;-62
2022/05/09 10:31:54;;;;;;;2.53;1.67;;;16.20;75.20;;;;;;5052849;28;20248;-61
2022/05/09 10:34:27;;;;;;;1.93;1.50;;;16.20;75.10;;;;;;5052834;28;20201;-61
2022/05/09 10:37:01;;;;;;;5.40;2.50;;;16.20;74.70;;;;;;5052800;28;20263;-63
2022/05/09 10:39:33;;;;;;;5.13;1.73;;;16.30;73.70;;;;;;5052507;28;20196;-63
2022/05/09 10:42:02;;;;;;;3.70;1.70;;;16.30;73.30;;;;;;5052549;28;20683;-62
2022/05/09 10:44:39;;;;;;;3.13;1.43;;;16.30;72.70;;;;;;5052421;28;20209;-62
2022/05/09 10:47:10;;;;;;;3.00;1.70;;;16.40;72.50;;;;;;5052557;28;20283;-63
2022/05/09 10:49:46;;;;;;;3.23;1.60;;;16.40;72.70;;;;;;5052378;28;20189;-62
2022/05/09 10:52:30;;;;;;;4.60;1.57;;;16.40;71.80;;;;;;5052123;28;20197;-62
2022/05/09 10:55:03;;;;;;;2.90;1.60;;;16.50;71.10;;;;;;5052448;28;20552;-61
2022/05/09 10:57:35;;;;;;;5.13;1.33;;;16.50;68.80;;;;;;5052262;28;20194;-63
2022/05/09 11:00:07;;;;;;;2.67;1.80;;;16.50;67.90;;;;;;5051880;28;20194;-64
2022/05/09 11:02:39;;;;;;;1.43;1.30;;;16.60;71.20;;;;;;5052056;28;20221;-61
2022/05/09 11:05:08;;;;;;;2.97;1.60;;;16.70;68.40;;;;;;5052067;28;20186;-61
2022/05/09 11:07:42;;;;;;;7.60;2.20;;;16.70;70.10;;;;;;5051605;28;20239;-62
2022/05/09 11:10:23;;;;;;;5.27;2.17;;;16.70;70.00;;;;;;5052205;28;20242;-64
2022/05/09 11:13:09;;;;;;;5.43;2.10;;;16.70;70.90;;;;;;5052284;28;20563;-61
2022/05/09 11:15:44;;;;;;;3.87;1.90;;;16.70;71.30;;;;;;5051131;28;20186;-61
2022/05/09 11:18:26;;;;;;;5.13;2.00;;;16.80;71.50;;;;;;5051832;28;20229;-63
2022/05/09 11:21:02;;;;;;;5.63;2.10;;;16.80;71.80;;;;;;5051760;28;20217;-62
2022/05/09 11:23:34;;;;;;;5.90;2.83;;;16.90;70.70;;;;;;5051614;28;20520;-60
2022/05/09 11:26:14;;;;;;;7.17;2.73;;;16.90;69.90;;;;;;5051444;28;20196;-62
2022/05/09 11:29:11;;;;;;;3.70;2.30;;;17.00;70.40;;;;;;5051294;28;20622;-62
2022/05/09 11:31:49;;;;;;;3.50;1.80;;;17.10;69.00;;;;;;5051160;28;20186;-64
2022/05/09 11:34:27;;;;;;;6.13;1.80;;;17.00;69.40;;;;;;5051641;28;20659;-63
2022/05/09 11:37:14;;;;;;;3.13;1.40;;;17.00;70.10;;;;;;5051734;28;20201;-61
2022/05/09 11:39:53;;;;;;;1.93;1.40;;;17.00;69.90;;;;;;5051299;28;20215;-64
2022/05/09 11:45:26;;;;;;;4.20;1.87;;;17.00;68.20;;;;;;5051445;28;20180;-62
2022/05/09 11:48:05;;;;;;;2.90;1.90;;;16.90;68.60;;;;;;5051661;28;20194;-63
2022/05/09 11:50:47;;;;;;;4.40;1.97;;;16.90;69.80;;;;;;5051721;28;20213;-62
2022/05/09 11:53:18;;;;;;;5.03;1.70;;;16.90;69.50;;;;;;5051495;28;20193;-62
2022/05/09 11:55:48;;;;;;;3.83;1.53;;;16.80;69.60;;;;;;5051595;28;20200;-63
2022/05/09 11:58:16;;;;;;;3.20;1.83;;;16.90;69.80;;;;;;5051659;28;20296;-65
2022/05/09 12:00:49;;;;;;;4.57;2.60;;;16.90;71.10;;;;;;5051110;28;20205;-62
2022/05/09 12:03:54;;;;;;;2.87;1.57;;;17.00;70.50;;;;;;5051091;28;20301;-63
2022/05/09 12:06:44;;;;;;;4.60;1.90;;;17.10;70.80;;;;;;5051186;28;20600;-64
2022/05/09 12:09:50;;;;;;;4.57;1.87;;;17.10;69.60;;;;;;5031232;28;20676;-64
2022/05/09 12:12:54;;;;;;;17.27;1.90;;;17.10;68.80;;;;;;5037197;28;20204;-61
2022/05/09 12:15:48;;;;;;;4.23;2.00;;;17.10;71.30;;;;;;5050953;28;20200;-66
2022/05/09 12:18:22;;;;;;;3.47;2.00;;;17.10;69.80;;;;;;5050790;28;20225;-64
2022/05/09 12:21:15;;;;;;;3.20;1.97;;;17.20;69.80;;;;;;5051597;28;20189;-66
2022/05/09 12:24:10;;;;;;;3.53;1.97;;;17.20;69.00;;;;;;5042539;28;20209;-63
2022/05/09 12:26:39;;;;;;;4.93;1.90;;;17.20;69.70;;;;;;5034026;28;20209;-66
2022/05/09 12:29:30;;;;;;;4.00;2.33;;;17.30;69.20;;;;;;5054997;28;20300;-63
2022/05/09 12:31:59;;;;;;;4.83;2.10;;;17.20;68.00;;;;;;5054946;28;20194;-63
2022/05/09 12:34:33;;;;;;;3.13;1.50;;;17.10;68.70;;;;;;5054629;28;20212;-63
2022/05/09 12:37:01;;;;;;;2.17;1.60;;;17.10;69.40;;;;;;5054970;28;20250;-62
2022/05/09 12:39:33;;;;;;;4.00;1.67;;;17.10;68.40;;;;;;5054182;28;20308;-62
2022/05/09 12:42:02;;;;;;;2.73;1.40;;;17.20;69.80;;;;;;5054705;28;20236;-64
2022/05/09 12:44:34;;;;;;;4.63;1.80;;;17.20;68.90;;;;;;5054451;28;20232;-64
2022/05/09 12:47:04;;;;;;;6.33;2.07;;;17.30;69.40;;;;;;5054768;28;20621;-64
2022/05/09 12:49:36;;;;;;;2.57;1.50;;;17.30;68.30;;;;;;5054137;28;20201;-64
2022/05/09 12:52:05;;;;;;;3.30;1.70;;;17.20;67.30;;;;;;5054141;28;20194;-62
2022/05/09 12:54:33;;;;;;;4.10;1.63;;;17.10;67.60;;;;;;5054395;28;20671;-66
2022/05/09 12:57:04;;;;;;;4.23;1.87;;;17.00;68.40;;;;;;5054251;28;20645;-65
2022/05/09 12:59:45;;;;;;;9.33;1.77;;;17.00;67.20;;;;;;5054171;28;20525;-62
2022/05/09 13:02:21;;;;;;;2.67;1.50;;;17.00;68.50;;;;;;5053910;28;20206;-62
2022/05/09 13:04:49;;;;;;;1.37;1.23;;;17.00;68.20;;;;;;5054389;28;20236;-62
2022/05/09 13:07:17;;;;;;;3.73;1.67;;;17.00;67.80;;;;;;5053684;28;20241;-62
2022/05/09 13:09:48;;;;;;;2.10;1.90;;;17.00;68.00;;;;;;5054276;28;20714;-63
2022/05/09 13:12:23;;;;;;;4.80;2.67;;;17.00;67.60;;;;;;5054120;28;20196;-64
2022/05/09 13:14:56;;;;;;;2.67;1.90;;;17.00;68.80;;;;;;5054169;28;20194;-65